sensor_id;sensor_type;location;lat;lon;timestamp;P1;durP1;ratioP1;P2;durP2;ratioP2
26098;SDS011;13860;52.370;6.764;2022-08-19T00:03:04;7.45;;;5.05;;
26098;SDS011;13860;52.370;6.764;2022-08-19T00:06:10;12.82;;;5.20;;
26098;SDS011;13860;52.370;6.764;2022-08-19T00:09:22;5.95;;;4.55;;
26098;SDS011;13860;52.370;6.764;2022-08-19T00:12:29;10.68;;;5.05;;
26098;SDS011;13860;52.370;6.764;2022-08-19T00:15:39;6.07;;;4.53;;
26098;SDS011;13860;52.370;6.764;2022-08-19T00:18:46;8.27;;;5.30;;
26098;SDS011;13860;52.370;6.764;2022-08-19T00:21:52;6.43;;;4.68;;
26098;SDS011;13860;52.370;6.764;2022-08-19T00:25:00;8.45;;;5.10;;
26098;SDS011;13860;52.370;6.764;2022-08-19T00:28:05;10.48;;;5.35;;
26098;SDS011;13860;52.370;6.764;2022-08-19T00:31:10;9.68;;;5.13;;
26098;SDS011;13860;52.370;6.764;2022-08-19T00:34:15;8.38;;;4.93;;
26098;SDS011;13860;52.370;6.764;2022-08-19T00:37:21;7.63;;;5.15;;
26098;SDS011;13860;52.370;6.764;2022-08-19T00:40:30;7.53;;;5.50;;
26098;SDS011;13860;52.370;6.764;2022-08-19T00:43:35;11.07;;;4.90;;
26098;SDS011;13860;52.370;6.764;2022-08-19T00:46:41;8.65;;;5.60;;
26098;SDS011;13860;52.370;6.764;2022-08-19T00:49:59;7.90;;;5.38;;
26098;SDS011;13860;52.370;6.764;2022-08-19T00:53:04;8.00;;;5.50;;
26098;SDS011;13860;52.370;6.764;2022-08-19T00:56:14;7.55;;;5.32;;
26098;SDS011;13860;52.370;6.764;2022-08-19T00:59:20;11.18;;;6.22;;
26098;SDS011;13860;52.370;6.764;2022-08-19T01:02:45;9.35;;;6.13;;
26098;SDS011;13860;52.370;6.764;2022-08-19T01:05:50;11.93;;;7.22;;
26098;SDS011;13860;52.370;6.764;2022-08-19T01:08:58;9.02;;;7.18;;
26098;SDS011;13860;52.370;6.764;2022-08-19T01:12:06;8.45;;;6.82;;
26098;SDS011;13860;52.370;6.764;2022-08-19T01:15:14;10.05;;;7.15;;
26098;SDS011;13860;52.370;6.764;2022-08-19T01:18:22;11.77;;;7.53;;
26098;SDS011;13860;52.370;6.764;2022-08-19T01:21:30;11.25;;;8.00;;
26098;SDS011;13860;52.370;6.764;2022-08-19T01:24:40;13.82;;;7.70;;
26098;SDS011;13860;52.370;6.764;2022-08-19T01:27:50;12.00;;;7.55;;
26098;SDS011;13860;52.370;6.764;2022-08-19T01:31:02;13.93;;;8.23;;
26098;SDS011;13860;52.370;6.764;2022-08-19T01:34:08;19.15;;;8.95;;
26098;SDS011;13860;52.370;6.764;2022-08-19T01:37:14;11.25;;;7.95;;
26098;SDS011;13860;52.370;6.764;2022-08-19T01:40:31;16.67;;;8.98;;
26098;SDS011;13860;52.370;6.764;2022-08-19T01:43:37;10.35;;;8.43;;
26098;SDS011;13860;52.370;6.764;2022-08-19T01:47:02;12.57;;;8.75;;
26098;SDS011;13860;52.370;6.764;2022-08-19T01:50:08;12.07;;;9.35;;
26098;SDS011;13860;52.370;6.764;2022-08-19T01:53:15;15.68;;;9.27;;
26098;SDS011;13860;52.370;6.764;2022-08-19T01:56:23;14.65;;;9.27;;
26098;SDS011;13860;52.370;6.764;2022-08-19T01:59:28;14.45;;;9.40;;
26098;SDS011;13860;52.370;6.764;2022-08-19T02:02:38;12.52;;;9.52;;
26098;SDS011;13860;52.370;6.764;2022-08-19T02:05:55;12.68;;;9.45;;
26098;SDS011;13860;52.370;6.764;2022-08-19T02:09:02;14.75;;;9.43;;
26098;SDS011;13860;52.370;6.764;2022-08-19T02:12:12;13.38;;;9.68;;
26098;SDS011;13860;52.370;6.764;2022-08-19T02:15:18;14.15;;;10.43;;
26098;SDS011;13860;52.370;6.764;2022-08-19T02:18:24;16.40;;;10.75;;
26098;SDS011;13860;52.370;6.764;2022-08-19T02:21:29;16.15;;;10.13;;
26098;SDS011;13860;52.370;6.764;2022-08-19T02:24:35;16.58;;;10.52;;
26098;SDS011;13860;52.370;6.764;2022-08-19T02:27:43;15.82;;;9.88;;
26098;SDS011;13860;52.370;6.764;2022-08-19T02:30:50;13.05;;;9.52;;
26098;SDS011;13860;52.370;6.764;2022-08-19T02:33:55;15.68;;;10.25;;
26098;SDS011;13860;52.370;6.764;2022-08-19T02:37:00;15.75;;;10.98;;
26098;SDS011;13860;52.370;6.764;2022-08-19T02:40:06;14.40;;;10.70;;
26098;SDS011;13860;52.370;6.764;2022-08-19T02:43:15;17.58;;;10.50;;
26098;SDS011;13860;52.370;6.764;2022-08-19T02:46:22;17.05;;;11.63;;
26098;SDS011;13860;52.370;6.764;2022-08-19T02:49:30;16.58;;;11.00;;
26098;SDS011;13860;52.370;6.764;2022-08-19T02:52:35;15.25;;;11.52;;
26098;SDS011;13860;52.370;6.764;2022-08-19T02:55:44;15.07;;;11.20;;
26098;SDS011;13860;52.370;6.764;2022-08-19T02:58:53;22.05;;;11.85;;
26098;SDS011;13860;52.370;6.764;2022-08-19T03:01:58;18.40;;;12.00;;
26098;SDS011;13860;52.370;6.764;2022-08-19T03:05:03;14.68;;;11.00;;
26098;SDS011;13860;52.370;6.764;2022-08-19T03:08:10;13.93;;;10.82;;
26098;SDS011;13860;52.370;6.764;2022-08-19T03:11:17;15.32;;;11.65;;
26098;SDS011;13860;52.370;6.764;2022-08-19T03:14:26;18.05;;;12.30;;
26098;SDS011;13860;52.370;6.764;2022-08-19T03:17:31;17.48;;;11.60;;
26098;SDS011;13860;52.370;6.764;2022-08-19T03:20:40;16.63;;;11.70;;
26098;SDS011;13860;52.370;6.764;2022-08-19T03:23:46;18.15;;;11.57;;
26098;SDS011;13860;52.370;6.764;2022-08-19T03:26:53;19.95;;;11.73;;
26098;SDS011;13860;52.370;6.764;2022-08-19T03:30:03;16.05;;;12.05;;
26098;SDS011;13860;52.370;6.764;2022-08-19T03:33:12;15.98;;;11.38;;
26098;SDS011;13860;52.370;6.764;2022-08-19T03:36:25;17.50;;;12.32;;
26098;SDS011;13860;52.370;6.764;2022-08-19T03:39:31;16.92;;;11.90;;
26098;SDS011;13860;52.370;6.764;2022-08-19T03:42:37;18.92;;;12.20;;
26098;SDS011;13860;52.370;6.764;2022-08-19T03:46:01;21.73;;;13.13;;
26098;SDS011;13860;52.370;6.764;2022-08-19T03:49:08;16.80;;;12.07;;
26098;SDS011;13860;52.370;6.764;2022-08-19T03:52:15;16.10;;;11.38;;
26098;SDS011;13860;52.370;6.764;2022-08-19T03:55:20;17.00;;;11.50;;
26098;SDS011;13860;52.370;6.764;2022-08-19T03:58:25;17.65;;;11.93;;
26098;SDS011;13860;52.370;6.764;2022-08-19T04:01:34;20.55;;;12.70;;
26098;SDS011;13860;52.370;6.764;2022-08-19T04:04:40;16.95;;;12.23;;
26098;SDS011;13860;52.370;6.764;2022-08-19T04:07:46;15.52;;;11.73;;
26098;SDS011;13860;52.370;6.764;2022-08-19T04:10:51;15.10;;;11.52;;
26098;SDS011;13860;52.370;6.764;2022-08-19T04:13:56;16.23;;;11.70;;
26098;SDS011;13860;52.370;6.764;2022-08-19T04:17:07;20.10;;;12.88;;
26098;SDS011;13860;52.370;6.764;2022-08-19T04:20:12;18.52;;;12.15;;
26098;SDS011;13860;52.370;6.764;2022-08-19T04:23:17;19.15;;;12.20;;
26098;SDS011;13860;52.370;6.764;2022-08-19T04:26:24;19.73;;;11.93;;
26098;SDS011;13860;52.370;6.764;2022-08-19T04:29:33;17.05;;;12.85;;
26098;SDS011;13860;52.370;6.764;2022-08-19T04:32:43;15.80;;;12.07;;
26098;SDS011;13860;52.370;6.764;2022-08-19T04:35:49;16.85;;;11.32;;
26098;SDS011;13860;52.370;6.764;2022-08-19T04:38:56;16.63;;;12.02;;
26098;SDS011;13860;52.370;6.764;2022-08-19T04:42:03;17.48;;;10.65;;
26098;SDS011;13860;52.370;6.764;2022-08-19T04:45:31;16.48;;;9.82;;
26098;SDS011;13860;52.370;6.764;2022-08-19T04:48:47;14.95;;;10.52;;
26098;SDS011;13860;52.370;6.764;2022-08-19T04:51:52;13.00;;;9.75;;
26098;SDS011;13860;52.370;6.764;2022-08-19T04:54:58;14.07;;;9.95;;
26098;SDS011;13860;52.370;6.764;2022-08-19T04:58:03;11.20;;;8.82;;
26098;SDS011;13860;52.370;6.764;2022-08-19T05:01:08;15.18;;;9.88;;
26098;SDS011;13860;52.370;6.764;2022-08-19T05:04:18;12.90;;;9.25;;
26098;SDS011;13860;52.370;6.764;2022-08-19T05:07:24;18.73;;;10.52;;
26098;SDS011;13860;52.370;6.764;2022-08-19T05:10:29;12.13;;;9.70;;
26098;SDS011;13860;52.370;6.764;2022-08-19T05:13:34;13.88;;;10.00;;
26098;SDS011;13860;52.370;6.764;2022-08-19T05:16:42;16.80;;;9.57;;
26098;SDS011;13860;52.370;6.764;2022-08-19T05:19:49;12.95;;;9.77;;
26098;SDS011;13860;52.370;6.764;2022-08-19T05:23:07;13.65;;;9.50;;
26098;SDS011;13860;52.370;6.764;2022-08-19T05:26:23;13.80;;;9.88;;
26098;SDS011;13860;52.370;6.764;2022-08-19T05:29:29;12.45;;;8.70;;
26098;SDS011;13860;52.370;6.764;2022-08-19T05:32:37;14.52;;;9.40;;
26098;SDS011;13860;52.370;6.764;2022-08-19T05:35:44;15.88;;;9.15;;
26098;SDS011;13860;52.370;6.764;2022-08-19T05:38:49;11.80;;;8.20;;
26098;SDS011;13860;52.370;6.764;2022-08-19T05:41:55;11.75;;;8.98;;
26098;SDS011;13860;52.370;6.764;2022-08-19T05:45:02;13.75;;;9.15;;
26098;SDS011;13860;52.370;6.764;2022-08-19T05:48:08;16.50;;;9.95;;
26098;SDS011;13860;52.370;6.764;2022-08-19T05:51:17;12.38;;;9.32;;
26098;SDS011;13860;52.370;6.764;2022-08-19T05:54:22;11.95;;;8.75;;
26098;SDS011;13860;52.370;6.764;2022-08-19T05:57:28;12.38;;;8.25;;
26098;SDS011;13860;52.370;6.764;2022-08-19T06:00:33;12.52;;;9.00;;
26098;SDS011;13860;52.370;6.764;2022-08-19T06:03:39;11.50;;;8.75;;
26098;SDS011;13860;52.370;6.764;2022-08-19T06:06:46;13.32;;;10.43;;
26098;SDS011;13860;52.370;6.764;2022-08-19T06:09:53;15.95;;;11.25;;
26098;SDS011;13860;52.370;6.764;2022-08-19T06:13:02;15.52;;;10.60;;
26098;SDS011;13860;52.370;6.764;2022-08-19T06:16:07;12.52;;;9.32;;
26098;SDS011;13860;52.370;6.764;2022-08-19T06:19:12;17.25;;;10.88;;
26098;SDS011;13860;52.370;6.764;2022-08-19T06:22:21;13.05;;;9.65;;
26098;SDS011;13860;52.370;6.764;2022-08-19T06:25:26;15.23;;;10.75;;
26098;SDS011;13860;52.370;6.764;2022-08-19T06:28:32;17.60;;;11.38;;
26098;SDS011;13860;52.370;6.764;2022-08-19T06:31:37;17.98;;;9.75;;
26098;SDS011;13860;52.370;6.764;2022-08-19T06:34:46;16.73;;;10.45;;
26098;SDS011;13860;52.370;6.764;2022-08-19T06:37:54;19.90;;;12.70;;
26098;SDS011;13860;52.370;6.764;2022-08-19T06:41:02;18.83;;;12.77;;
26098;SDS011;13860;52.370;6.764;2022-08-19T06:44:08;21.88;;;12.70;;
26098;SDS011;13860;52.370;6.764;2022-08-19T06:47:14;21.90;;;13.70;;
26098;SDS011;13860;52.370;6.764;2022-08-19T06:50:28;19.40;;;12.85;;
26098;SDS011;13860;52.370;6.764;2022-08-19T06:53:39;19.08;;;12.85;;
26098;SDS011;13860;52.370;6.764;2022-08-19T06:56:49;20.10;;;14.05;;
26098;SDS011;13860;52.370;6.764;2022-08-19T06:59:54;18.60;;;13.18;;
26098;SDS011;13860;52.370;6.764;2022-08-19T07:02:59;22.50;;;13.30;;
26098;SDS011;13860;52.370;6.764;2022-08-19T07:06:10;24.58;;;13.52;;
26098;SDS011;13860;52.370;6.764;2022-08-19T07:09:40;20.48;;;13.30;;
26098;SDS011;13860;52.370;6.764;2022-08-19T07:13:00;26.70;;;14.47;;
26098;SDS011;13860;52.370;6.764;2022-08-19T07:16:05;23.35;;;14.52;;
26098;SDS011;13860;52.370;6.764;2022-08-19T07:19:13;23.40;;;14.38;;
26098;SDS011;13860;52.370;6.764;2022-08-19T07:22:19;22.70;;;12.68;;
26098;SDS011;13860;52.370;6.764;2022-08-19T07:25:27;20.20;;;13.90;;
26098;SDS011;13860;52.370;6.764;2022-08-19T07:28:34;22.50;;;14.10;;
26098;SDS011;13860;52.370;6.764;2022-08-19T07:31:51;19.42;;;12.88;;
26098;SDS011;13860;52.370;6.764;2022-08-19T07:34:57;24.75;;;12.95;;
26098;SDS011;13860;52.370;6.764;2022-08-19T07:38:05;18.13;;;12.27;;
26098;SDS011;13860;52.370;6.764;2022-08-19T07:41:13;18.92;;;12.30;;
26098;SDS011;13860;52.370;6.764;2022-08-19T07:44:19;23.08;;;11.88;;
26098;SDS011;13860;52.370;6.764;2022-08-19T07:47:25;18.85;;;11.15;;
26098;SDS011;13860;52.370;6.764;2022-08-19T07:50:51;19.58;;;12.05;;
26098;SDS011;13860;52.370;6.764;2022-08-19T07:53:56;22.90;;;11.70;;
26098;SDS011;13860;52.370;6.764;2022-08-19T07:57:04;18.67;;;12.48;;
26098;SDS011;13860;52.370;6.764;2022-08-19T08:00:10;17.30;;;10.60;;
26098;SDS011;13860;52.370;6.764;2022-08-19T08:03:17;22.20;;;12.68;;
26098;SDS011;13860;52.370;6.764;2022-08-19T08:06:43;17.10;;;11.90;;
26098;SDS011;13860;52.370;6.764;2022-08-19T08:10:02;15.48;;;11.20;;
26098;SDS011;13860;52.370;6.764;2022-08-19T08:13:24;20.50;;;11.50;;
26098;SDS011;13860;52.370;6.764;2022-08-19T08:16:30;17.58;;;10.70;;
26098;SDS011;13860;52.370;6.764;2022-08-19T08:19:35;15.00;;;10.55;;
26098;SDS011;13860;52.370;6.764;2022-08-19T08:22:43;17.15;;;11.02;;
26098;SDS011;13860;52.370;6.764;2022-08-19T08:26:01;14.88;;;9.60;;
26098;SDS011;13860;52.370;6.764;2022-08-19T08:29:08;17.90;;;11.27;;
26098;SDS011;13860;52.370;6.764;2022-08-19T08:32:14;21.45;;;12.02;;
26098;SDS011;13860;52.370;6.764;2022-08-19T08:35:20;22.40;;;11.52;;
26098;SDS011;13860;52.370;6.764;2022-08-19T08:38:27;19.52;;;11.90;;
26098;SDS011;13860;52.370;6.764;2022-08-19T08:41:41;19.50;;;11.07;;
26098;SDS011;13860;52.370;6.764;2022-08-19T08:44:55;20.13;;;13.27;;
26098;SDS011;13860;52.370;6.764;2022-08-19T08:48:09;16.75;;;11.20;;
26098;SDS011;13860;52.370;6.764;2022-08-19T08:51:26;17.85;;;11.82;;
26098;SDS011;13860;52.370;6.764;2022-08-19T08:54:37;16.88;;;11.20;;
26098;SDS011;13860;52.370;6.764;2022-08-19T08:57:57;20.55;;;10.88;;
26098;SDS011;13860;52.370;6.764;2022-08-19T09:01:09;19.90;;;11.38;;
26098;SDS011;13860;52.370;6.764;2022-08-19T09:04:15;19.23;;;9.88;;
26098;SDS011;13860;52.370;6.764;2022-08-19T09:07:23;18.08;;;11.20;;
26098;SDS011;13860;52.370;6.764;2022-08-19T09:10:46;16.38;;;9.43;;
26098;SDS011;13860;52.370;6.764;2022-08-19T09:13:59;12.02;;;8.40;;
26098;SDS011;13860;52.370;6.764;2022-08-19T09:17:34;21.02;;;10.27;;
26098;SDS011;13860;52.370;6.764;2022-08-19T09:20:40;15.90;;;10.40;;
26098;SDS011;13860;52.370;6.764;2022-08-19T09:23:46;12.90;;;9.15;;
26098;SDS011;13860;52.370;6.764;2022-08-19T09:26:52;12.95;;;8.88;;
26098;SDS011;13860;52.370;6.764;2022-08-19T09:29:58;13.95;;;8.80;;
26098;SDS011;13860;52.370;6.764;2022-08-19T09:33:06;13.20;;;7.80;;
26098;SDS011;13860;52.370;6.764;2022-08-19T09:36:12;17.08;;;10.18;;
26098;SDS011;13860;52.370;6.764;2022-08-19T09:39:35;17.55;;;9.65;;
26098;SDS011;13860;52.370;6.764;2022-08-19T09:42:40;13.68;;;8.27;;
26098;SDS011;13860;52.370;6.764;2022-08-19T09:45:52;13.65;;;8.98;;
26098;SDS011;13860;52.370;6.764;2022-08-19T09:49:00;14.70;;;8.32;;
26098;SDS011;13860;52.370;6.764;2022-08-19T09:52:07;13.38;;;8.52;;
26098;SDS011;13860;52.370;6.764;2022-08-19T09:55:14;14.18;;;8.27;;
26098;SDS011;13860;52.370;6.764;2022-08-19T09:58:20;11.93;;;6.80;;
26098;SDS011;13860;52.370;6.764;2022-08-19T10:01:30;8.38;;;4.60;;
26098;SDS011;13860;52.370;6.764;2022-08-19T10:04:38;9.43;;;5.68;;
26098;SDS011;13860;52.370;6.764;2022-08-19T10:07:55;9.13;;;5.65;;
26098;SDS011;13860;52.370;6.764;2022-08-19T10:11:05;6.32;;;3.88;;
26098;SDS011;13860;52.370;6.764;2022-08-19T10:14:30;11.30;;;4.80;;
26098;SDS011;13860;52.370;6.764;2022-08-19T10:17:36;7.55;;;3.90;;
26098;SDS011;13860;52.370;6.764;2022-08-19T10:20:51;6.80;;;4.28;;
26098;SDS011;13860;52.370;6.764;2022-08-19T10:23:57;6.45;;;4.20;;
26098;SDS011;13860;52.370;6.764;2022-08-19T10:27:05;6.30;;;4.22;;
26098;SDS011;13860;52.370;6.764;2022-08-19T10:30:12;6.63;;;4.55;;
26098;SDS011;13860;52.370;6.764;2022-08-19T10:33:17;7.20;;;4.55;;
26098;SDS011;13860;52.370;6.764;2022-08-19T10:36:45;5.93;;;4.72;;
26098;SDS011;13860;52.370;6.764;2022-08-19T10:40:01;6.53;;;5.03;;
26098;SDS011;13860;52.370;6.764;2022-08-19T10:43:07;6.95;;;4.90;;
26098;SDS011;13860;52.370;6.764;2022-08-19T10:46:14;9.38;;;5.05;;
26098;SDS011;13860;52.370;6.764;2022-08-19T10:49:20;8.80;;;4.82;;
26098;SDS011;13860;52.370;6.764;2022-08-19T10:52:28;6.00;;;4.43;;
26098;SDS011;13860;52.370;6.764;2022-08-19T10:55:39;6.65;;;4.78;;
26098;SDS011;13860;52.370;6.764;2022-08-19T10:58:57;5.88;;;3.83;;
26098;SDS011;13860;52.370;6.764;2022-08-19T11:02:05;5.57;;;3.95;;
26098;SDS011;13860;52.370;6.764;2022-08-19T11:05:13;5.70;;;3.90;;
26098;SDS011;13860;52.370;6.764;2022-08-19T11:08:21;7.65;;;4.75;;
26098;SDS011;13860;52.370;6.764;2022-08-19T11:11:28;8.00;;;4.07;;
26098;SDS011;13860;52.370;6.764;2022-08-19T11:14:38;9.85;;;6.03;;
26098;SDS011;13860;52.370;6.764;2022-08-19T11:17:44;8.60;;;5.30;;
26098;SDS011;13860;52.370;6.764;2022-08-19T11:20:49;10.52;;;5.47;;
26098;SDS011;13860;52.370;6.764;2022-08-19T11:23:57;9.30;;;4.50;;
26098;SDS011;13860;52.370;6.764;2022-08-19T11:27:04;5.57;;;4.38;;
26098;SDS011;13860;52.370;6.764;2022-08-19T11:30:12;7.80;;;4.97;;
26098;SDS011;13860;52.370;6.764;2022-08-19T11:33:18;9.68;;;5.25;;
26098;SDS011;13860;52.370;6.764;2022-08-19T11:36:23;10.55;;;5.55;;
26098;SDS011;13860;52.370;6.764;2022-08-19T11:39:30;10.63;;;4.88;;
26098;SDS011;13860;52.370;6.764;2022-08-19T11:42:38;6.95;;;4.78;;
26098;SDS011;13860;52.370;6.764;2022-08-19T11:45:59;7.47;;;4.43;;
26098;SDS011;13860;52.370;6.764;2022-08-19T11:49:04;8.10;;;4.60;;
26098;SDS011;13860;52.370;6.764;2022-08-19T11:52:14;10.98;;;5.25;;
26098;SDS011;13860;52.370;6.764;2022-08-19T11:55:22;7.55;;;5.05;;
26098;SDS011;13860;52.370;6.764;2022-08-19T11:58:27;8.07;;;4.13;;
26098;SDS011;13860;52.370;6.764;2022-08-19T12:01:33;9.38;;;4.60;;
26098;SDS011;13860;52.370;6.764;2022-08-19T12:04:39;6.68;;;4.28;;
26098;SDS011;13860;52.370;6.764;2022-08-19T12:07:44;5.25;;;4.38;;
26098;SDS011;13860;52.370;6.764;2022-08-19T12:10:54;9.27;;;4.75;;
26098;SDS011;13860;52.370;6.764;2022-08-19T12:13:59;4.60;;;3.60;;
26098;SDS011;13860;52.370;6.764;2022-08-19T12:17:04;6.40;;;3.58;;
26098;SDS011;13860;52.370;6.764;2022-08-19T12:20:11;6.15;;;4.55;;
26098;SDS011;13860;52.370;6.764;2022-08-19T12:23:18;9.20;;;5.25;;
26098;SDS011;13860;52.370;6.764;2022-08-19T12:26:26;7.95;;;4.50;;
26098;SDS011;13860;52.370;6.764;2022-08-19T12:29:33;7.55;;;4.47;;
26098;SDS011;13860;52.370;6.764;2022-08-19T12:32:38;7.40;;;4.75;;
26098;SDS011;13860;52.370;6.764;2022-08-19T12:35:44;7.38;;;5.35;;
26098;SDS011;13860;52.370;6.764;2022-08-19T12:38:50;10.65;;;5.88;;
26098;SDS011;13860;52.370;6.764;2022-08-19T12:41:58;8.40;;;5.45;;
26098;SDS011;13860;52.370;6.764;2022-08-19T12:45:04;7.45;;;5.30;;
26098;SDS011;13860;52.370;6.764;2022-08-19T12:48:09;7.78;;;4.93;;
26098;SDS011;13860;52.370;6.764;2022-08-19T12:51:34;6.90;;;4.63;;
26098;SDS011;13860;52.370;6.764;2022-08-19T12:54:39;6.90;;;4.70;;
26098;SDS011;13860;52.370;6.764;2022-08-19T12:57:47;6.78;;;4.82;;
26098;SDS011;13860;52.370;6.764;2022-08-19T13:00:52;8.70;;;5.40;;
26098;SDS011;13860;52.370;6.764;2022-08-19T13:03:57;9.38;;;5.68;;
26098;SDS011;13860;52.370;6.764;2022-08-19T13:07:03;13.93;;;4.82;;
26098;SDS011;13860;52.370;6.764;2022-08-19T13:10:09;9.23;;;5.10;;
26098;SDS011;13860;52.370;6.764;2022-08-19T13:13:22;6.28;;;5.45;;
26098;SDS011;13860;52.370;6.764;2022-08-19T13:16:27;7.85;;;5.13;;
26098;SDS011;13860;52.370;6.764;2022-08-19T13:19:33;9.60;;;6.40;;
26098;SDS011;13860;52.370;6.764;2022-08-19T13:22:41;7.07;;;4.90;;
26098;SDS011;13860;52.370;6.764;2022-08-19T13:25:54;7.63;;;5.00;;
26098;SDS011;13860;52.370;6.764;2022-08-19T13:32:20;7.38;;;5.00;;
26098;SDS011;13860;52.370;6.764;2022-08-19T13:35:37;5.70;;;4.05;;
26098;SDS011;13860;52.370;6.764;2022-08-19T13:38:43;9.18;;;4.30;;
26098;SDS011;13860;52.370;6.764;2022-08-19T13:41:48;8.18;;;4.78;;
26098;SDS011;13860;52.370;6.764;2022-08-19T13:44:56;9.93;;;4.18;;
26098;SDS011;13860;52.370;6.764;2022-08-19T13:48:01;8.18;;;5.60;;
26098;SDS011;13860;52.370;6.764;2022-08-19T13:51:09;7.55;;;5.10;;
26098;SDS011;13860;52.370;6.764;2022-08-19T13:54:14;8.75;;;5.82;;
26098;SDS011;13860;52.370;6.764;2022-08-19T13:57:19;8.10;;;5.68;;
26098;SDS011;13860;52.370;6.764;2022-08-19T14:00:28;10.70;;;5.15;;
26098;SDS011;13860;52.370;6.764;2022-08-19T14:03:35;10.20;;;5.90;;
26098;SDS011;13860;52.370;6.764;2022-08-19T14:06:40;13.30;;;5.85;;
26098;SDS011;13860;52.370;6.764;2022-08-19T14:09:45;8.32;;;5.85;;
26098;SDS011;13860;52.370;6.764;2022-08-19T14:12:52;9.25;;;5.57;;
26098;SDS011;13860;52.370;6.764;2022-08-19T14:16:02;10.65;;;5.35;;
26098;SDS011;13860;52.370;6.764;2022-08-19T14:19:11;8.63;;;6.00;;
26098;SDS011;13860;52.370;6.764;2022-08-19T14:22:17;6.30;;;4.40;;
26098;SDS011;13860;52.370;6.764;2022-08-19T14:25:25;7.57;;;4.60;;
26098;SDS011;13860;52.370;6.764;2022-08-19T14:28:32;7.53;;;5.03;;
26098;SDS011;13860;52.370;6.764;2022-08-19T14:31:40;8.13;;;4.78;;
26098;SDS011;13860;52.370;6.764;2022-08-19T14:34:45;7.22;;;4.38;;
26098;SDS011;13860;52.370;6.764;2022-08-19T14:37:50;7.22;;;5.22;;
26098;SDS011;13860;52.370;6.764;2022-08-19T14:41:05;7.70;;;4.90;;
26098;SDS011;13860;52.370;6.764;2022-08-19T14:44:11;5.75;;;4.22;;
26098;SDS011;13860;52.370;6.764;2022-08-19T14:47:19;5.60;;;3.90;;
26098;SDS011;13860;52.370;6.764;2022-08-19T14:50:24;5.60;;;4.10;;
26098;SDS011;13860;52.370;6.764;2022-08-19T14:53:29;6.32;;;3.80;;
26098;SDS011;13860;52.370;6.764;2022-08-19T14:56:34;7.68;;;5.28;;
26098;SDS011;13860;52.370;6.764;2022-08-19T14:59:39;9.07;;;5.78;;
26098;SDS011;13860;52.370;6.764;2022-08-19T15:02:47;10.70;;;6.25;;
26098;SDS011;13860;52.370;6.764;2022-08-19T15:05:52;10.98;;;5.72;;
26098;SDS011;13860;52.370;6.764;2022-08-19T15:08:58;10.95;;;6.15;;
26098;SDS011;13860;52.370;6.764;2022-08-19T15:12:05;9.18;;;5.50;;
26098;SDS011;13860;52.370;6.764;2022-08-19T15:15:13;7.72;;;5.13;;
26098;SDS011;13860;52.370;6.764;2022-08-19T15:18:22;14.95;;;6.43;;
26098;SDS011;13860;52.370;6.764;2022-08-19T15:21:27;16.67;;;6.13;;
26098;SDS011;13860;52.370;6.764;2022-08-19T15:24:33;9.38;;;6.10;;
26098;SDS011;13860;52.370;6.764;2022-08-19T15:27:48;8.55;;;6.10;;
26098;SDS011;13860;52.370;6.764;2022-08-19T15:30:54;8.68;;;5.75;;
26098;SDS011;13860;52.370;6.764;2022-08-19T15:34:02;8.25;;;5.75;;
26098;SDS011;13860;52.370;6.764;2022-08-19T15:37:11;9.23;;;6.47;;
26098;SDS011;13860;52.370;6.764;2022-08-19T15:40:16;9.82;;;6.57;;
26098;SDS011;13860;52.370;6.764;2022-08-19T15:43:21;10.32;;;6.22;;
26098;SDS011;13860;52.370;6.764;2022-08-19T15:46:27;12.95;;;6.03;;
26098;SDS011;13860;52.370;6.764;2022-08-19T15:49:37;11.23;;;6.47;;
26098;SDS011;13860;52.370;6.764;2022-08-19T15:52:44;17.65;;;9.07;;
26098;SDS011;13860;52.370;6.764;2022-08-19T15:55:50;21.73;;;10.43;;
26098;SDS011;13860;52.370;6.764;2022-08-19T15:58:55;16.83;;;10.73;;
26098;SDS011;13860;52.370;6.764;2022-08-19T16:02:13;23.25;;;11.88;;
26098;SDS011;13860;52.370;6.764;2022-08-19T16:05:35;22.52;;;14.27;;
26098;SDS011;13860;52.370;6.764;2022-08-19T16:08:53;23.27;;;12.93;;
26098;SDS011;13860;52.370;6.764;2022-08-19T16:11:59;28.20;;;13.73;;
26098;SDS011;13860;52.370;6.764;2022-08-19T16:15:07;24.77;;;14.25;;
26098;SDS011;13860;52.370;6.764;2022-08-19T16:18:14;25.80;;;14.63;;
26098;SDS011;13860;52.370;6.764;2022-08-19T16:21:21;27.50;;;14.50;;
26098;SDS011;13860;52.370;6.764;2022-08-19T16:24:33;23.80;;;13.38;;
26098;SDS011;13860;52.370;6.764;2022-08-19T16:27:38;21.88;;;11.98;;
26098;SDS011;13860;52.370;6.764;2022-08-19T16:31:03;23.40;;;13.60;;
26098;SDS011;13860;52.370;6.764;2022-08-19T16:34:09;21.50;;;12.77;;
26098;SDS011;13860;52.370;6.764;2022-08-19T16:37:17;23.70;;;12.98;;
26098;SDS011;13860;52.370;6.764;2022-08-19T16:40:24;21.70;;;12.20;;
26098;SDS011;13860;52.370;6.764;2022-08-19T16:43:29;22.25;;;11.57;;
26098;SDS011;13860;52.370;6.764;2022-08-19T16:46:34;24.85;;;12.15;;
26098;SDS011;13860;52.370;6.764;2022-08-19T16:49:42;17.95;;;10.32;;
26098;SDS011;13860;52.370;6.764;2022-08-19T16:52:58;15.85;;;10.55;;
26098;SDS011;13860;52.370;6.764;2022-08-19T16:56:04;20.10;;;10.63;;
26098;SDS011;13860;52.370;6.764;2022-08-19T16:59:10;17.63;;;10.68;;
26098;SDS011;13860;52.370;6.764;2022-08-19T17:02:15;18.65;;;10.13;;
26098;SDS011;13860;52.370;6.764;2022-08-19T17:05:22;23.92;;;10.57;;
26098;SDS011;13860;52.370;6.764;2022-08-19T17:08:31;18.17;;;10.10;;
26098;SDS011;13860;52.370;6.764;2022-08-19T17:11:38;18.83;;;9.70;;
26098;SDS011;13860;52.370;6.764;2022-08-19T17:14:42;17.10;;;9.88;;
26098;SDS011;13860;52.370;6.764;2022-08-19T17:17:48;22.33;;;11.35;;
26098;SDS011;13860;52.370;6.764;2022-08-19T17:20:53;23.10;;;11.80;;
26098;SDS011;13860;52.370;6.764;2022-08-19T17:24:02;22.25;;;12.73;;
26098;SDS011;13860;52.370;6.764;2022-08-19T17:27:09;22.58;;;12.25;;
26098;SDS011;13860;52.370;6.764;2022-08-19T17:30:14;22.30;;;11.07;;
26098;SDS011;13860;52.370;6.764;2022-08-19T17:33:19;18.75;;;11.82;;
26098;SDS011;13860;52.370;6.764;2022-08-19T17:36:25;16.23;;;9.88;;
26098;SDS011;13860;52.370;6.764;2022-08-19T17:39:34;21.08;;;10.65;;
26098;SDS011;13860;52.370;6.764;2022-08-19T17:42:40;18.02;;;11.25;;
26098;SDS011;13860;52.370;6.764;2022-08-19T17:45:45;23.98;;;10.43;;
26098;SDS011;13860;52.370;6.764;2022-08-19T17:48:51;19.70;;;10.63;;
26098;SDS011;13860;52.370;6.764;2022-08-19T17:51:57;21.85;;;11.73;;
26098;SDS011;13860;52.370;6.764;2022-08-19T17:55:06;12.95;;;8.40;;
26098;SDS011;13860;52.370;6.764;2022-08-19T17:58:11;10.85;;;6.47;;
26098;SDS011;13860;52.370;6.764;2022-08-19T18:01:20;15.45;;;7.35;;
26098;SDS011;13860;52.370;6.764;2022-08-19T18:04:26;9.57;;;6.70;;
26098;SDS011;13860;52.370;6.764;2022-08-19T18:07:32;12.40;;;6.85;;
26098;SDS011;13860;52.370;6.764;2022-08-19T18:10:39;10.73;;;6.47;;
26098;SDS011;13860;52.370;6.764;2022-08-19T18:13:44;17.00;;;6.80;;
26098;SDS011;13860;52.370;6.764;2022-08-19T18:16:50;9.10;;;5.90;;
26098;SDS011;13860;52.370;6.764;2022-08-19T18:19:56;13.82;;;6.15;;
26098;SDS011;13860;52.370;6.764;2022-08-19T18:23:01;13.85;;;6.38;;
26098;SDS011;13860;52.370;6.764;2022-08-19T18:26:29;9.80;;;5.95;;
26098;SDS011;13860;52.370;6.764;2022-08-19T18:29:34;13.18;;;6.50;;
26098;SDS011;13860;52.370;6.764;2022-08-19T18:32:40;13.18;;;6.05;;
26098;SDS011;13860;52.370;6.764;2022-08-19T18:35:50;8.77;;;5.40;;
26098;SDS011;13860;52.370;6.764;2022-08-19T18:38:55;10.60;;;5.47;;
26098;SDS011;13860;52.370;6.764;2022-08-19T18:42:16;10.32;;;5.60;;